Time;durP1;ratioP1;P1;durP2;ratioP2;P2;SDS_P1;SDS_P2;PMS_P1;PMS_P2;Temp;Humidity;BMP_temperature;BMP_pressure;BME280_temperature;BME280_humidity;BME280_pressure;Samples;Min_cycle;Max_cycle;Signal;HPM_P1;HPM_P2
2022/08/20 00:05:23;;;;;;;3.08;2.38;;;18.50;64.30;20.60;94032.00;;;;10517652;28;45228;-58
2022/08/20 00:10:47;;;;;;;3.38;2.40;;;18.50;64.30;20.60;94017.00;;;;10517493;28;45554;-57
2022/08/20 00:16:09;;;;;;;2.97;2.40;;;18.50;64.20;20.60;94021.00;;;;10517003;28;45218;-57
2022/08/20 00:21:30;;;;;;;2.30;2.08;;;18.50;64.20;20.60;94030.00;;;;10516994;28;45212;-57
2022/08/20 00:26:52;;;;;;;2.80;2.30;;;18.50;64.20;20.60;94023.00;;;;10503093;28;45873;-56
2022/08/20 00:32:12;;;;;;;2.45;2.10;;;18.50;64.10;20.60;94031.00;;;;10517184;28;45140;-57
2022/08/20 00:37:32;;;;;;;2.95;1.98;;;18.50;64.10;20.60;94035.00;;;;10515881;28;45331;-57
2022/08/20 00:42:57;;;;;;;2.90;2.13;;;18.50;64.10;20.60;94030.00;;;;10502522;28;45904;-57
2022/08/20 00:48:18;;;;;;;2.83;2.00;;;18.50;64.00;20.60;94030.00;;;;10516246;28;45168;-58
2022/08/20 00:53:39;;;;;;;3.30;2.33;;;18.50;64.00;20.60;94032.00;;;;10516343;28;45205;-58
2022/08/20 00:59:04;;;;;;;3.58;2.20;;;18.50;64.00;20.60;94022.00;;;;10513903;27;45798;-55
2022/08/20 01:04:27;;;;;;;3.78;2.17;;;18.50;64.00;20.60;94032.00;;;;10511555;28;45758;-56
2022/08/20 01:09:48;;;;;;;2.92;1.98;;;18.50;63.90;20.60;94031.00;;;;10515120;28;45246;-56
2022/08/20 01:15:15;;;;;;;2.45;1.70;;;18.50;63.90;20.60;94034.00;;;;10514781;28;45165;-59
2022/08/20 01:20:41;;;;;;;2.55;2.03;;;18.50;64.70;20.60;94019.00;;;;10504197;27;45146;-58
2022/08/20 01:26:08;;;;;;;4.15;2.33;;;18.50;63.90;20.60;94027.00;;;;10508407;28;45582;-57
2022/08/20 01:31:32;;;;;;;2.28;1.83;;;18.50;63.80;20.60;94040.00;;;;10515302;27;45161;-57
2022/08/20 01:36:56;;;;;;;3.33;2.10;;;18.50;63.80;20.60;94051.00;;;;10514334;28;45144;-55
2022/08/20 01:42:26;;;;;;;2.75;2.10;;;18.50;63.80;20.60;94054.00;;;;10506663;28;45677;-57
2022/08/20 01:47:46;;;;;;;2.85;1.85;;;18.50;63.80;20.60;94053.00;;;;10499655;28;46103;-57
2022/08/20 01:53:19;;;;;;;2.28;1.88;;;18.50;63.70;20.60;94048.00;;;;10513681;28;45761;-57
2022/08/20 01:58:44;;;;;;;2.25;1.83;;;18.50;63.70;20.60;94042.00;;;;10512999;27;45755;-58
2022/08/20 02:04:09;;;;;;;2.67;2.00;;;18.50;63.70;20.60;94043.00;;;;10512271;28;45694;-57
2022/08/20 02:09:34;;;;;;;3.85;1.98;;;18.50;63.70;20.60;94056.00;;;;10511837;28;45873;-58
2022/08/20 02:14:56;;;;;;;2.67;1.88;;;18.50;63.70;20.60;94056.00;;;;10512562;28;45423;-57
2022/08/20 02:20:20;;;;;;;2.53;1.95;;;18.50;63.70;20.60;94062.00;;;;10498634;28;45872;-57
2022/08/20 02:25:46;;;;;;;2.42;1.83;;;18.50;63.60;20.60;94050.00;;;;10510783;28;45223;-56
2022/08/20 02:31:08;;;;;;;2.90;2.00;;;18.50;63.60;20.60;94057.00;;;;10511894;27;45470;-57
2022/08/20 02:36:28;;;;;;;2.22;1.67;;;18.50;63.60;20.60;94051.00;;;;10498834;28;45682;-56
2022/08/20 02:41:49;;;;;;;2.65;1.63;;;18.50;63.50;20.60;94057.00;;;;10505252;28;45211;-58
2022/08/20 02:47:11;;;;;;;2.58;2.00;;;18.50;63.60;20.60;94046.00;;;;10511051;28;45159;-58
2022/08/20 02:52:32;;;;;;;2.13;1.75;;;18.50;63.50;20.60;94043.00;;;;10511595;28;45206;-58
2022/08/20 02:57:54;;;;;;;2.53;1.95;;;18.50;63.50;20.60;94030.00;;;;10510737;28;45681;-57
2022/08/20 03:03:21;;;;;;;2.40;1.80;;;18.50;63.50;20.60;94023.00;;;;10511030;28;45227;-58
2022/08/20 03:08:42;;;;;;;2.50;1.63;;;18.50;63.50;20.60;94029.00;;;;10510748;28;45136;-58
2022/08/20 03:14:03;;;;;;;2.80;1.63;;;18.50;63.50;20.60;94033.00;;;;10510963;28;45487;-57
2022/08/20 03:19:25;;;;;;;2.10;1.70;;;18.50;63.50;20.60;94031.00;;;;10510941;28;45304;-57
2022/08/20 03:24:45;;;;;;;2.65;1.92;;;18.50;63.50;20.60;94024.00;;;;10514575;27;45122;-58
2022/08/20 03:30:10;;;;;;;2.20;1.67;;;18.50;63.50;20.60;94020.00;;;;10517684;28;45288;-58
2022/08/20 03:35:34;;;;;;;1.92;1.40;;;18.50;63.50;20.60;94019.00;;;;10517131;28;45831;-58
2022/08/20 03:40:55;;;;;;;3.03;1.88;;;18.50;63.50;20.60;94016.00;;;;10513015;28;45145;-58
2022/08/20 03:46:15;;;;;;;2.55;1.70;;;18.50;63.50;20.60;94005.00;;;;10517248;28;45134;-57
2022/08/20 03:51:37;;;;;;;2.50;1.80;;;18.50;63.40;20.60;94016.00;;;;10517324;27;45859;-57
2022/08/20 03:56:59;;;;;;;1.88;1.40;;;18.50;63.40;20.60;94012.00;;;;10516858;28;45272;-57
2022/08/20 04:02:19;;;;;;;2.40;1.70;;;18.50;63.40;20.60;94016.00;;;;10516414;28;45282;-57
2022/08/20 04:07:41;;;;;;;3.53;1.73;;;18.50;63.40;20.60;94026.00;;;;10516894;27;45545;-57
2022/08/20 04:13:02;;;;;;;2.00;1.58;;;18.50;63.40;20.60;94041.00;;;;10516689;28;45309;-57
2022/08/20 04:18:25;;;;;;;2.50;1.52;;;18.50;63.40;20.60;94044.00;;;;10514302;27;45773;-56
2022/08/20 04:23:46;;;;;;;2.08;1.45;;;18.50;63.40;20.60;94039.00;;;;10503253;28;45940;-58
2022/08/20 04:29:07;;;;;;;1.77;1.48;;;18.50;63.30;20.60;94041.00;;;;10515760;28;45140;-57
2022/08/20 04:34:28;;;;;;;2.10;1.60;;;18.50;63.30;20.60;94040.00;;;;10515088;27;45112;-57
2022/08/20 04:45:25;;;;;;;2.05;1.60;;;18.50;63.30;20.60;94048.00;;;;10514246;28;45204;-57
2022/08/20 04:50:47;;;;;;;1.70;1.40;;;18.50;63.30;20.60;94034.00;;;;10515345;27;46105;-57
2022/08/20 04:56:10;;;;;;;3.65;1.58;;;18.50;63.40;20.60;94025.00;;;;10514643;28;45806;-58
2022/08/20 05:01:30;;;;;;;2.20;1.77;;;18.50;63.30;20.60;94046.00;;;;10514809;27;45161;-59
2022/08/20 05:06:51;;;;;;;2.45;1.30;;;18.50;63.20;20.60;94048.00;;;;10514127;28;45689;-57
2022/08/20 05:12:16;;;;;;;1.83;1.40;;;18.50;63.20;20.60;94047.00;;;;10514378;28;45195;-58
2022/08/20 05:17:38;;;;;;;1.48;1.33;;;18.50;63.30;20.60;94048.00;;;;10513518;27;45472;-57
2022/08/20 05:23:00;;;;;;;2.17;1.70;;;18.50;63.30;20.60;94044.00;;;;10512896;28;45217;-57
2022/08/20 05:28:26;;;;;;;1.92;1.40;;;18.50;63.30;20.60;94055.00;;;;10513296;28;45242;-58
2022/08/20 05:33:49;;;;;;;1.87;1.43;;;18.50;63.20;20.60;94054.00;;;;10513738;28;45790;-58
2022/08/20 05:39:12;;;;;;;1.40;1.30;;;18.50;63.20;20.60;94048.00;;;;10513277;28;45195;-56
2022/08/20 05:44:34;;;;;;;1.50;1.20;;;18.50;63.20;20.60;94065.00;;;;10512350;27;45877;-57
2022/08/20 05:49:54;;;;;;;1.70;1.40;;;18.50;63.30;20.60;94056.00;;;;10513339;28;45416;-57
2022/08/20 05:55:15;;;;;;;2.97;1.70;;;18.50;63.30;20.60;94060.00;;;;10512565;28;45218;-57
2022/08/20 06:00:37;;;;;;;1.80;1.13;;;18.50;63.40;20.60;94051.00;;;;10512840;27;45194;-57
2022/08/20 06:05:58;;;;;;;1.52;1.30;;;18.50;63.30;20.60;94045.00;;;;10512211;28;45666;-57
2022/08/20 06:11:19;;;;;;;1.55;1.17;;;18.50;63.30;20.60;94053.00;;;;10512744;28;45205;-56
2022/08/20 06:16:41;;;;;;;1.45;1.10;;;18.50;63.30;20.60;94060.00;;;;10511797;28;45274;-57
2022/08/20 06:22:03;;;;;;;1.35;1.10;;;18.50;63.30;20.60;94068.00;;;;10499288;28;45722;-57
2022/08/20 06:27:25;;;;;;;2.13;1.40;;;18.50;63.20;20.60;94073.00;;;;10510652;27;45844;-56
2022/08/20 06:32:48;;;;;;;1.67;1.30;;;18.50;63.30;20.60;94070.00;;;;10512753;28;45473;-58
2022/08/20 06:38:11;;;;;;;1.60;1.30;;;18.50;63.20;20.60;94081.00;;;;10511543;28;45331;-58
2022/08/20 06:43:32;;;;;;;1.77;1.27;;;18.50;63.30;20.60;94073.00;;;;10511550;28;45268;-57
2022/08/20 06:48:54;;;;;;;1.48;1.10;;;18.50;63.10;20.70;94080.00;;;;10511863;28;45395;-58
2022/08/20 06:54:16;;;;;;;1.80;1.27;;;18.60;63.20;20.70;94077.00;;;;10510215;27;45776;-58
2022/08/20 06:59:36;;;;;;;1.58;1.17;;;18.60;63.20;20.70;94086.00;;;;10517517;27;45182;-57
2022/08/20 07:04:58;;;;;;;1.70;1.30;;;18.60;63.20;20.60;94095.00;;;;10518241;28;45875;-57
2022/08/20 07:10:20;;;;;;;1.83;1.30;;;18.60;63.30;20.60;94094.00;;;;10518688;27;45274;-58
2022/08/20 07:15:41;;;;;;;1.85;1.33;;;18.60;63.40;20.60;94087.00;;;;10517651;28;45662;-58
2022/08/20 07:21:03;;;;;;;2.95;1.38;;;18.50;63.40;20.60;94099.00;;;;10518512;27;45685;-57
2022/08/20 07:26:24;;;;;;;1.73;1.27;;;18.60;63.50;20.60;94094.00;;;;10517365;28;45872;-57
2022/08/20 07:37:24;;;;;;;2.83;1.27;;;18.60;63.40;20.70;94095.00;;;;10518647;27;45685;-60
2022/08/20 07:42:47;;;;;;;3.35;1.38;;;18.60;63.90;20.70;94106.00;;;;10522209;28;45229;-59
2022/08/20 07:48:11;;;;;;;1.52;1.27;;;18.60;64.10;20.70;94108.00;;;;10516661;28;45265;-60
2022/08/20 07:53:36;;;;;;;2.53;1.30;;;18.60;64.00;20.70;94106.00;;;;10520318;28;45192;-60
2022/08/20 07:59:01;;;;;;;2.40;1.40;;;18.70;63.80;20.70;94110.00;;;;10518953;28;45426;-59
2022/08/20 08:04:23;;;;;;;2.53;1.20;;;18.70;63.80;20.70;94097.00;;;;10506332;28;45197;-59
2022/08/20 08:09:45;;;;;;;1.55;1.20;;;18.60;63.80;20.70;94114.00;;;;10514973;27;45192;-59
2022/08/20 08:15:13;;;;;;;2.40;1.38;;;18.60;63.70;20.70;94109.00;;;;10515936;28;45123;-59
2022/08/20 08:20:36;;;;;;;2.20;1.17;;;18.60;63.80;20.70;94109.00;;;;10504922;28;45324;-59
2022/08/20 08:25:59;;;;;;;1.92;1.50;;;18.70;63.90;20.70;94118.00;;;;10502230;28;45626;-60
2022/08/20 08:31:19;;;;;;;1.42;1.10;;;18.70;63.70;20.80;94125.00;;;;10514931;27;45898;-57
2022/08/20 08:36:42;;;;;;;2.15;1.30;;;18.70;63.80;20.80;94116.00;;;;10514902;28;45234;-56
2022/08/20 08:42:24;;;;;;;2.08;1.20;;;18.70;63.80;20.80;94119.00;;;;10514706;27;45191;-56
2022/08/20 08:47:45;;;;;;;1.48;1.10;;;18.80;64.00;20.80;94122.00;;;;10512055;27;45254;-58
2022/08/20 08:53:07;;;;;;;2.10;1.30;;;18.80;63.80;20.80;94122.00;;;;10515351;28;45181;-57
2022/08/20 08:58:30;;;;;;;2.83;1.45;;;18.80;63.90;20.90;94112.00;;;;10514538;28;45306;-57
2022/08/20 09:03:51;;;;;;;4.35;1.15;;;18.80;63.80;20.90;94122.00;;;;10514263;28;45320;-56
2022/08/20 09:09:21;;;;;;;2.55;1.27;;;18.80;63.70;20.90;94119.00;;;;10513934;28;45806;-58
2022/08/20 09:14:44;;;;;;;1.17;0.90;;;18.80;63.70;20.90;94104.00;;;;10513165;28;45242;-57
2022/08/20 09:20:09;;;;;;;2.08;1.38;;;18.80;63.80;20.90;94107.00;;;;10511746;27;45279;-59
2022/08/20 09:25:29;;;;;;;1.98;1.05;;;18.80;63.90;20.90;94115.00;;;;10514177;28;45797;-56
2022/08/20 09:30:51;;;;;;;1.90;1.23;;;18.80;64.00;20.90;94111.00;;;;10513523;28;45166;-58
2022/08/20 09:36:11;;;;;;;1.73;1.10;;;18.80;64.00;20.90;94121.00;;;;10513642;28;45803;-58
2022/08/20 09:41:32;;;;;;;6.40;1.17;;;18.80;64.10;20.90;94103.00;;;;10513841;27;45244;-58
2022/08/20 09:46:54;;;;;;;3.08;1.20;;;18.80;64.10;20.90;94108.00;;;;10516153;28;45257;-58
2022/08/20 09:52:22;;;;;;;2.22;0.93;;;18.80;64.00;20.90;94120.00;;;;10516048;27;45974;-58
2022/08/20 09:57:43;;;;;;;3.17;1.00;;;18.80;63.90;20.90;94102.00;;;;10513569;28;45530;-58
2022/08/20 10:03:05;;;;;;;3.00;1.00;;;18.80;63.80;20.90;94115.00;;;;10512999;28;45202;-59
2022/08/20 10:08:26;;;;;;;2.25;0.90;;;18.80;63.90;20.90;94112.00;;;;10512773;28;45235;-58
2022/08/20 10:13:47;;;;;;;1.85;0.90;;;18.80;63.80;20.90;94097.00;;;;10514510;28;45152;-58
2022/08/20 10:19:09;;;;;;;2.08;1.15;;;18.80;63.70;20.90;94097.00;;;;10514036;27;45761;-57
2022/08/20 10:24:30;;;;;;;1.23;0.88;;;18.80;63.80;20.90;94084.00;;;;10513883;28;45216;-58
2022/08/20 10:29:50;;;;;;;1.30;0.90;;;18.80;63.80;20.90;94095.00;;;;10514732;27;45873;-57
2022/08/20 10:35:12;;;;;;;2.15;1.05;;;18.80;63.70;20.90;94089.00;;;;10514317;28;45167;-58
2022/08/20 10:40:33;;;;;;;1.67;0.90;;;18.80;63.70;20.90;94077.00;;;;10512521;27;45315;-59
2022/08/20 10:45:54;;;;;;;1.90;0.95;;;18.80;63.70;20.90;94094.00;;;;10511549;27;46639;-58
2022/08/20 10:51:16;;;;;;;1.13;0.90;;;18.80;63.70;20.90;94084.00;;;;10513919;28;45205;-57
2022/08/20 10:56:37;;;;;;;1.08;0.80;;;18.80;63.20;20.90;94087.00;;;;10513036;28;45184;-57
2022/08/20 11:01:57;;;;;;;1.10;0.90;;;18.80;63.60;20.90;94091.00;;;;10512993;27;45143;-58
2022/08/20 11:07:21;;;;;;;0.95;0.68;;;18.80;63.70;20.90;94100.00;;;;10509710;28;45214;-59
2022/08/20 11:12:42;;;;;;;1.08;0.77;;;18.80;63.50;20.90;94087.00;;;;10511330;28;45366;-59
2022/08/20 11:18:04;;;;;;;2.15;0.50;;;18.80;63.30;20.90;94088.00;;;;10510306;28;45281;-57
2022/08/20 11:23:26;;;;;;;1.92;0.80;;;18.80;63.10;20.90;94078.00;;;;10510132;28;45051;-58
2022/08/20 11:28:47;;;;;;;0.75;0.57;;;18.80;63.20;20.90;94080.00;;;;10510137;28;45878;-58
2022/08/20 11:34:07;;;;;;;0.85;0.60;;;18.80;63.10;20.90;94066.00;;;;10508376;28;45319;-59
2022/08/20 11:39:29;;;;;;;1.23;0.88;;;18.80;63.00;20.90;94086.00;;;;10508151;28;45781;-58
2022/08/20 11:44:49;;;;;;;3.80;0.80;;;18.80;63.10;20.90;94077.00;;;;10524418;27;45909;-57
2022/08/20 11:50:13;;;;;;;1.45;0.75;;;18.90;63.10;20.90;94078.00;;;;10515747;27;45399;-58
2022/08/20 11:55:36;;;;;;;1.98;0.80;;;18.90;62.90;20.90;94074.00;;;;10516673;28;45295;-57
2022/08/20 12:00:57;;;;;;;0.95;0.80;;;18.80;63.10;20.90;94083.00;;;;10516835;27;45855;-58
2022/08/20 12:06:18;;;;;;;0.80;0.70;;;18.80;63.30;20.90;94090.00;;;;10516780;28;45261;-58
2022/08/20 12:11:40;;;;;;;0.80;0.50;;;18.80;63.00;20.90;94076.00;;;;10516188;27;45205;-58
2022/08/20 12:17:08;;;;;;;1.27;0.60;;;18.80;63.00;20.90;94089.00;;;;10511981;28;45228;-58
2022/08/20 12:22:29;;;;;;;0.80;0.68;;;18.80;63.10;20.90;94066.00;;;;10516407;28;45237;-58
2022/08/20 12:27:51;;;;;;;0.63;0.50;;;18.80;63.00;20.90;94075.00;;;;10514421;27;45100;-59
2022/08/20 12:33:13;;;;;;;0.43;0.43;;;18.90;63.40;21.00;94077.00;;;;10516061;28;45322;-57
2022/08/20 12:38:34;;;;;;;0.70;0.47;;;18.90;63.40;21.00;94062.00;;;;10515539;27;45673;-58
2022/08/20 12:43:56;;;;;;;0.75;0.50;;;19.00;63.20;21.00;94067.00;;;;10515080;28;45279;-59
2022/08/20 12:49:17;;;;;;;1.75;0.50;;;19.00;63.00;21.10;94074.00;;;;10515324;27;45219;-59
2022/08/20 12:54:37;;;;;;;0.80;0.60;;;18.90;63.20;21.10;94074.00;;;;10514611;27;45531;-59
2022/08/20 13:00:06;;;;;;;0.68;0.47;;;18.90;63.00;21.10;94076.00;;;;10514612;28;45702;-59
2022/08/20 13:05:28;;;;;;;1.20;0.47;;;18.90;63.00;21.10;94059.00;;;;10514404;28;45173;-58
2022/08/20 13:10:48;;;;;;;0.40;0.40;;;18.90;63.00;21.10;94077.00;;;;10514494;27;45136;-59
2022/08/20 13:16:10;;;;;;;1.50;0.60;;;19.00;63.10;21.20;94073.00;;;;10512965;27;45875;-57
2022/08/20 13:21:30;;;;;;;1.25;0.50;;;19.00;63.10;21.10;94061.00;;;;10513810;28;45294;-57
2022/08/20 13:26:51;;;;;;;0.57;0.50;;;19.00;63.00;21.20;94073.00;;;;10500888;28;45304;-58
2022/08/20 13:32:14;;;;;;;1.60;0.50;;;19.10;63.10;21.10;94059.00;;;;10518407;27;45803;-58
2022/08/20 13:37:35;;;;;;;0.60;0.50;;;19.00;63.00;21.20;94073.00;;;;10517767;27;45257;-59
2022/08/20 13:42:55;;;;;;;1.05;0.45;;;19.10;63.20;21.10;94073.00;;;;10517298;28;45258;-58
2022/08/20 13:48:17;;;;;;;0.75;0.30;;;19.00;63.20;21.20;94059.00;;;;10514237;27;45337;-58
2022/08/20 13:53:38;;;;;;;1.17;0.30;;;19.00;63.50;21.20;94068.00;;;;10513056;28;45302;-58
2022/08/20 13:58:58;;;;;;;1.42;0.30;;;19.10;64.10;21.20;94078.00;;;;10513077;27;45220;-58
2022/08/20 14:04:20;;;;;;;2.05;0.40;;;19.10;64.40;21.20;94086.00;;;;10512481;28;45132;-58
2022/08/20 14:09:43;;;;;;;0.93;0.43;;;19.10;64.30;21.20;94078.00;;;;10511548;27;45186;-58
2022/08/20 14:15:05;;;;;;;0.75;0.30;;;19.10;64.20;21.20;94074.00;;;;10512672;28;45239;-58
2022/08/20 14:20:32;;;;;;;0.65;0.30;;;19.10;64.10;21.20;94069.00;;;;10511225;28;45206;-57
2022/08/20 14:25:52;;;;;;;0.50;0.30;;;19.10;64.40;21.30;94069.00;;;;10504934;28;45378;-59
2022/08/20 14:31:13;;;;;;;0.50;0.35;;;19.10;65.20;21.30;94062.00;;;;10512083;28;45338;-58
2022/08/20 14:36:35;;;;;;;1.27;0.20;;;19.20;66.50;21.40;94061.00;;;;10511409;28;45700;-59
2022/08/20 14:41:55;;;;;;;0.28;0.20;;;19.30;66.40;21.40;94072.00;;;;10511148;27;45323;-58
2022/08/20 14:47:20;;;;;;;1.27;0.35;;;19.30;66.50;21.50;94070.00;;;;10511906;27;45241;-61
2022/08/20 14:52:42;;;;;;;2.45;0.50;;;19.40;65.90;21.40;94074.00;;;;10511854;28;45143;-59
2022/08/20 14:58:08;;;;;;;4.45;0.70;;;19.40;65.30;21.40;94079.00;;;;10510802;28;45176;-59
2022/08/20 15:03:29;;;;;;;3.05;0.50;;;19.30;65.30;21.40;94069.00;;;;10511587;28;45743;-60
2022/08/20 15:08:51;;;;;;;0.45;0.25;;;19.30;65.40;21.50;94047.00;;;;10511849;28;45290;-59
2022/08/20 15:14:12;;;;;;;1.25;0.30;;;19.40;65.40;21.50;94063.00;;;;10511267;28;45929;-58
2022/08/20 15:19:32;;;;;;;1.17;0.40;;;19.40;65.20;21.60;94048.00;;;;10511781;28;45222;-56
2022/08/20 15:24:54;;;;;;;1.05;0.40;;;19.50;65.40;21.60;94072.00;;;;10519238;28;45278;-58
2022/08/20 15:30:18;;;;;;;1.02;0.40;;;19.50;65.20;21.60;94056.00;;;;10517426;27;45279;-58
2022/08/20 15:35:39;;;;;;;0.75;0.30;;;19.50;65.00;21.60;94053.00;;;;10518646;28;45212;-59
2022/08/20 15:41:01;;;;;;;0.93;0.40;;;19.50;64.70;21.70;94051.00;;;;10519658;27;45829;-57
2022/08/20 15:46:22;;;;;;;0.20;0.20;;;19.50;64.50;21.70;94054.00;;;;10521942;28;45239;-58
2022/08/20 15:51:47;;;;;;;0.63;0.20;;;19.60;64.50;21.70;94051.00;;;;10521698;27;45278;-59
2022/08/20 15:57:13;;;;;;;1.33;0.20;;;19.60;64.40;21.70;94052.00;;;;10521253;28;45721;-58
2022/08/20 16:03:08;;;;;;;1.05;0.28;;;19.60;64.30;21.60;94059.00;;;;10519165;28;45709;-58
2022/08/20 16:08:51;;;;;;;1.20;0.30;;;19.50;64.40;21.60;94079.00;;;;10514786;27;45222;-58
2022/08/20 16:14:18;;;;;;;1.30;0.17;;;19.50;64.20;21.50;94078.00;;;;10513983;28;45213;-58
2022/08/20 16:19:52;;;;;;;0.38;0.20;;;19.50;64.30;21.50;94093.00;;;;10512733;27;45269;-59
2022/08/20 16:25:15;;;;;;;0.75;0.20;;;19.40;64.20;21.50;94087.00;;;;10510784;28;45273;-59
2022/08/20 16:30:43;;;;;;;1.25;0.30;;;19.40;64.20;21.50;94092.00;;;;10516502;27;45363;-58
2022/08/20 16:36:11;;;;;;;1.25;0.32;;;19.40;64.00;21.50;94105.00;;;;10515568;28;45185;-60
2022/08/20 16:41:38;;;;;;;0.60;0.30;;;19.40;63.80;21.60;94106.00;;;;10514968;27;45199;-58
2022/08/20 16:47:03;;;;;;;;;;;19.40;63.70;21.60;94106.00;;;;10515939;28;45411;-59
2022/08/20 16:52:24;;;;;;;0.52;0.22;;;19.50;63.50;21.60;94099.00;;;;10515615;28;45925;-58
2022/08/20 16:57:46;;;;;;;0.47;0.20;;;19.40;63.30;21.50;94098.00;;;;10508964;27;45297;-58
2022/08/20 17:03:20;;;;;;;0.50;0.30;;;19.40;63.40;21.50;94108.00;;;;10516572;27;45521;-58
2022/08/20 17:08:50;;;;;;;2.20;0.40;;;19.40;63.40;21.50;94112.00;;;;10519155;27;45231;-57
2022/08/20 17:14:14;;;;;;;0.40;0.10;;;19.40;63.40;21.50;94108.00;;;;10504747;28;45679;-56
2022/08/20 17:19:36;;;;;;;1.58;0.22;;;19.40;63.40;21.50;94116.00;;;;10510375;27;45768;-57
2022/08/20 17:24:57;;;;;;;0.35;0.20;;;19.40;63.30;21.50;94116.00;;;;10513790;28;45186;-57
2022/08/20 17:30:28;;;;;;;0.57;0.20;;;19.30;63.20;21.50;94105.00;;;;10514238;28;45327;-58
2022/08/20 17:35:56;;;;;;;0.75;0.20;;;19.30;63.20;21.40;94107.00;;;;10513427;28;45323;-60
2022/08/20 17:41:20;;;;;;;0.47;0.17;;;19.30;63.20;21.40;94111.00;;;;10511185;27;45709;-57
2022/08/20 17:46:45;;;;;;;1.35;0.28;;;19.30;63.20;21.40;94104.00;;;;10512015;28;45208;-57
2022/08/20 17:52:17;;;;;;;0.75;0.20;;;19.20;63.20;21.40;94115.00;;;;10512026;28;45752;-57
2022/08/20 17:57:40;;;;;;;0.30;0.08;;;19.30;63.30;21.40;94126.00;;;;10513237;27;45870;-56
2022/08/20 18:03:10;;;;;;;0.93;0.10;;;19.20;63.20;21.40;94136.00;;;;10513103;28;45278;-57
2022/08/20 18:08:40;;;;;;;0.43;0.10;;;19.20;63.30;21.30;94140.00;;;;10511641;28;45254;-56
2022/08/20 18:14:23;;;;;;;0.77;0.10;;;19.20;63.30;21.30;94131.00;;;;10512442;28;45206;-58
2022/08/20 18:20:18;;;;;;;0.77;0.22;;;19.20;63.30;21.30;94132.00;;;;10509726;27;45822;-59
2022/08/20 18:25:47;;;;;;;0.82;0.30;;;19.20;63.20;21.30;94129.00;;;;10508069;28;45236;-58
2022/08/20 18:31:09;;;;;;;1.65;0.30;;;19.20;63.30;21.30;94119.00;;;;10511177;28;45192;-57
2022/08/20 18:36:30;;;;;;;0.57;0.20;;;19.10;63.20;21.30;94121.00;;;;10511718;28;45225;-57
2022/08/20 18:42:01;;;;;;;0.77;0.20;;;19.10;63.20;21.30;94137.00;;;;10511077;28;45392;-58
2022/08/20 18:47:27;;;;;;;0.47;0.20;;;19.10;63.10;21.30;94135.00;;;;10510426;28;45228;-58
2022/08/20 18:52:51;;;;;;;0.25;0.20;;;19.10;63.10;21.30;94144.00;;;;10510870;27;45434;-57
2022/08/20 18:58:17;;;;;;;1.10;0.30;;;19.10;63.10;21.20;94140.00;;;;10510759;28;45851;-58
2022/08/20 19:03:44;;;;;;;1.07;0.30;;;19.10;63.20;21.20;94149.00;;;;10508276;28;45769;-57
2022/08/20 19:09:09;;;;;;;;;;;19.10;63.10;21.20;94150.00;;;;10510970;28;45298;-57
2022/08/20 19:14:55;;;;;;;1.58;0.20;;;19.10;63.10;21.20;94164.00;;;;10511276;28;45366;-58
2022/08/20 19:20:21;;;;;;;0.68;0.20;;;19.10;63.20;21.20;94146.00;;;;10496912;28;45802;-57
2022/08/20 19:25:52;;;;;;;0.40;0.10;;;19.10;64.10;21.20;94152.00;;;;10509825;28;45930;-58
2022/08/20 19:31:17;;;;;;;0.70;0.30;;;19.10;63.30;21.20;94148.00;;;;10507772;28;45530;-58
2022/08/20 19:36:38;;;;;;;0.40;0.20;;;19.10;63.20;21.20;94159.00;;;;10509649;28;45220;-58
2022/08/20 19:42:04;;;;;;;0.28;0.10;;;19.10;63.20;21.20;94158.00;;;;10508706;27;45747;-57
2022/08/20 19:47:33;;;;;;;0.10;0.10;;;19.00;63.10;21.20;94162.00;;;;10507512;28;45182;-59
2022/08/20 19:53:05;;;;;;;0.35;0.10;;;19.00;63.10;21.20;94168.00;;;;10510470;28;45209;-57
2022/08/20 19:58:27;;;;;;;1.05;0.20;;;19.00;63.80;21.20;94161.00;;;;10506408;28;45205;-58
2022/08/20 20:03:58;;;;;;;1.05;0.30;;;19.00;63.00;21.20;94169.00;;;;10512457;27;45300;-57
2022/08/20 20:09:23;;;;;;;0.25;0.10;;;19.10;63.30;21.20;94176.00;;;;10517574;28;45276;-56
2022/08/20 20:14:45;;;;;;;0.75;0.30;;;19.00;63.20;21.20;94178.00;;;;10517211;28;45261;-57
2022/08/20 20:20:23;;;;;;;0.82;0.17;;;19.10;63.10;21.20;94166.00;;;;10515739;28;45287;-59
2022/08/20 20:25:47;;;;;;;0.17;0.10;;;19.10;63.20;21.20;94168.00;;;;10512947;28;45722;-57
2022/08/20 20:31:12;;;;;;;0.55;0.10;;;19.10;63.30;21.20;94169.00;;;;10515788;27;45195;-58
2022/08/20 20:36:38;;;;;;;0.30;0.20;;;19.10;63.40;21.10;94159.00;;;;10515856;28;45733;-57
2022/08/20 20:42:02;;;;;;;0.32;0.20;;;19.00;63.10;21.20;94160.00;;;;10514596;28;45280;-57
2022/08/20 20:47:26;;;;;;;0.30;0.20;;;19.00;63.40;21.10;94146.00;;;;10515656;28;45670;-57
2022/08/20 20:52:54;;;;;;;0.13;0.10;;;19.00;63.30;21.10;94152.00;;;;10514875;28;45771;-57
2022/08/20 20:58:14;;;;;;;0.28;0.10;;;19.00;63.40;21.10;94157.00;;;;10513833;28;45733;-58
2022/08/20 21:03:35;;;;;;;0.65;0.20;;;19.00;63.40;21.10;94157.00;;;;10515583;28;45441;-58
2022/08/20 21:08:59;;;;;;;0.28;0.17;;;19.00;63.40;21.10;94140.00;;;;10511972;28;45332;-56
2022/08/20 21:14:19;;;;;;;0.28;0.20;;;19.00;63.40;21.10;94146.00;;;;10513816;27;45944;-58
2022/08/20 21:19:40;;;;;;;0.60;0.17;;;19.00;63.50;21.10;94153.00;;;;10510974;28;45218;-57
2022/08/20 21:25:04;;;;;;;0.98;0.20;;;19.00;63.50;21.10;94168.00;;;;10512393;28;45880;-58
2022/08/20 21:30:25;;;;;;;0.20;0.20;;;19.00;63.50;21.10;94166.00;;;;10507558;28;45427;-58
2022/08/20 21:35:46;;;;;;;0.80;0.20;;;18.90;63.50;21.10;94159.00;;;;10514017;28;45199;-59
2022/08/20 21:41:08;;;;;;;0.35;0.20;;;19.00;63.50;21.10;94148.00;;;;10512390;27;46054;-59
2022/08/20 21:46:28;;;;;;;0.22;0.10;;;19.00;63.60;21.10;94150.00;;;;10512283;28;45167;-59
2022/08/20 21:51:50;;;;;;;0.30;0.13;;;19.00;63.60;21.10;94136.00;;;;10509471;27;45315;-60
2022/08/20 21:57:18;;;;;;;0.10;0.10;;;18.90;63.50;21.10;94156.00;;;;10511570;28;45255;-58
2022/08/20 22:02:39;;;;;;;0.80;0.30;;;18.90;63.50;21.10;94145.00;;;;10504491;28;45343;-58
2022/08/20 22:08:00;;;;;;;0.30;0.10;;;18.90;63.60;21.10;94132.00;;;;10515697;28;45152;-59
2022/08/20 22:13:23;;;;;;;0.30;0.20;;;18.90;63.60;21.00;94132.00;;;;10514664;28;45158;-58
2022/08/20 22:18:44;;;;;;;0.10;0.10;;;18.90;63.50;21.10;94140.00;;;;10514795;28;45827;-58
2022/08/20 22:24:08;;;;;;;0.10;0.10;;;19.00;63.60;21.10;94139.00;;;;10514767;28;45963;-59
2022/08/20 22:29:30;;;;;;;0.35;0.20;;;18.90;63.50;21.00;94141.00;;;;10514790;27;45251;-59
2022/08/20 22:34:51;;;;;;;1.00;0.20;;;19.00;63.60;21.00;94135.00;;;;10514414;28;45748;-57
2022/08/20 22:40:12;;;;;;;0.13;0.13;;;18.90;63.60;21.00;94138.00;;;;10513413;27;45198;-59
2022/08/20 22:45:35;;;;;;;0.80;0.20;;;18.90;63.60;21.00;94135.00;;;;10515213;28;45132;-58
2022/08/20 22:50:57;;;;;;;1.05;0.10;;;18.90;63.60;21.00;94126.00;;;;10514449;28;45191;-59
2022/08/20 22:56:18;;;;;;;0.88;0.20;;;18.90;63.60;21.00;94126.00;;;;10514026;28;45790;-59
2022/08/20 23:01:40;;;;;;;0.17;0.10;;;18.90;63.60;21.00;94110.00;;;;10514303;28;45444;-58
2022/08/20 23:07:03;;;;;;;1.08;0.20;;;18.90;63.50;20.90;94119.00;;;;10513820;28;45706;-59
2022/08/20 23:12:23;;;;;;;0.43;0.20;;;18.90;63.60;21.00;94115.00;;;;10515052;28;45164;-58
2022/08/20 23:17:46;;;;;;;0.10;0.10;;;18.90;63.60;21.00;94110.00;;;;10513907;27;45276;-59
2022/08/20 23:23:07;;;;;;;0.22;0.17;;;18.90;63.60;21.00;94109.00;;;;10513374;28;45274;-59
2022/08/20 23:28:28;;;;;;;0.17;0.15;;;18.90;63.60;21.00;94100.00;;;;10513259;28;45311;-57
2022/08/20 23:33:50;;;;;;;0.17;0.13;;;18.90;64.40;21.00;94096.00;;;;10510366;28;45315;-58
2022/08/20 23:39:11;;;;;;;0.10;0.10;;;18.90;63.60;21.00;94109.00;;;;10511543;27;45311;-58
2022/08/20 23:44:31;;;;;;;0.20;0.20;;;18.90;63.50;21.00;94089.00;;;;10516900;28;45855;-58
2022/08/20 23:49:54;;;;;;;0.25;0.10;;;18.90;63.50;21.00;94092.00;;;;10517153;28;45768;-58
2022/08/20 23:55:14;;;;;;;0.68;0.22;;;18.90;63.40;21.00;94098.00;;;;10517285;28;45376;-59
